sensor_id;sensor_type;location;lat;lon;timestamp;pressure;altitude;pressure_sealevel;temperature;humidity
6423;BME280;3244;42.708;23.288;2023-04-05T00:01:59;94586.25;;;3.74;74.56
6423;BME280;3244;42.708;23.288;2023-04-05T00:04:26;94579.56;;;3.73;74.88
6423;BME280;3244;42.708;23.288;2023-04-05T00:06:54;94577.00;;;3.76;75.16
6423;BME280;3244;42.708;23.288;2023-04-05T00:09:21;94571.34;;;3.63;76.22
6423;BME280;3244;42.708;23.288;2023-04-05T00:11:48;94576.91;;;3.82;75.39
6423;BME280;3244;42.708;23.288;2023-04-05T00:14:15;94574.63;;;3.68;74.86
6423;BME280;3244;42.708;23.288;2023-04-05T00:16:43;94572.16;;;3.64;75.13
6423;BME280;3244;42.708;23.288;2023-04-05T00:19:10;94571.28;;;3.66;74.96
6423;BME280;3244;42.708;23.288;2023-04-05T00:21:38;94572.13;;;3.67;75.08
6423;BME280;3244;42.708;23.288;2023-04-05T00:24:05;94559.75;;;3.53;75.56
6423;BME280;3244;42.708;23.288;2023-04-05T00:26:39;94581.38;;;3.63;75.60
6423;BME280;3244;42.708;23.288;2023-04-05T00:29:07;94581.34;;;3.66;75.55
6423;BME280;3244;42.708;23.288;2023-04-05T00:31:33;94572.31;;;3.53;75.63
6423;BME280;3244;42.708;23.288;2023-04-05T00:34:02;94581.44;;;3.59;75.26
6423;BME280;3244;42.708;23.288;2023-04-05T00:36:30;94576.56;;;3.48;74.75
6423;BME280;3244;42.708;23.288;2023-04-05T00:38:57;94574.00;;;3.53;75.78
6423;BME280;3244;42.708;23.288;2023-04-05T00:41:23;94576.50;;;3.53;75.48
6423;BME280;3244;42.708;23.288;2023-04-05T00:43:50;94579.03;;;3.53;75.55
6423;BME280;3244;42.708;23.288;2023-04-05T00:46:17;94574.03;;;3.50;75.21
6423;BME280;3244;42.708;23.288;2023-04-05T00:48:44;94572.38;;;3.49;74.94
6423;BME280;3244;42.708;23.288;2023-04-05T00:51:12;94574.19;;;3.40;75.19
6423;BME280;3244;42.708;23.288;2023-04-05T00:53:39;94572.47;;;3.42;75.70
6423;BME280;3244;42.708;23.288;2023-04-05T00:56:07;94584.09;;;3.50;75.25
6423;BME280;3244;42.708;23.288;2023-04-05T00:58:34;94583.41;;;3.40;75.78
6423;BME280;3244;42.708;23.288;2023-04-05T01:01:09;94587.38;;;3.55;75.69
6423;BME280;3244;42.708;23.288;2023-04-05T01:03:41;94578.22;;;3.49;75.26
6423;BME280;3244;42.708;23.288;2023-04-05T01:06:19;94582.38;;;3.52;74.89
6423;BME280;3244;42.708;23.288;2023-04-05T01:08:53;94587.44;;;3.50;75.26
6423;BME280;3244;42.708;23.288;2023-04-05T01:11:22;94579.84;;;3.53;75.25
6423;BME280;3244;42.708;23.288;2023-04-05T01:13:57;94583.88;;;3.65;75.09
6423;BME280;3244;42.708;23.288;2023-04-05T01:16:23;94594.88;;;3.58;74.49
6423;BME280;3244;42.708;23.288;2023-04-05T01:18:50;94585.75;;;3.51;74.98
6423;BME280;3244;42.708;23.288;2023-04-05T01:21:57;94592.44;;;3.52;74.09
6423;BME280;3244;42.708;23.288;2023-04-05T01:24:48;94594.88;;;3.58;74.29
6423;BME280;3244;42.708;23.288;2023-04-05T01:27:20;94588.94;;;3.62;73.92
6423;BME280;3244;42.708;23.288;2023-04-05T01:29:52;94599.97;;;3.52;73.93
6423;BME280;3244;42.708;23.288;2023-04-05T01:32:45;94594.28;;;3.40;74.58
6423;BME280;3244;42.708;23.288;2023-04-05T01:35:20;94592.63;;;3.39;74.90
6423;BME280;3244;42.708;23.288;2023-04-05T01:37:53;94599.13;;;3.53;74.92
6423;BME280;3244;42.708;23.288;2023-04-05T01:40:21;94589.16;;;3.47;74.15
6423;BME280;3244;42.708;23.288;2023-04-05T01:42:48;94597.50;;;3.49;74.47
6423;BME280;3244;42.708;23.288;2023-04-05T01:45:16;94590.72;;;3.54;74.41
6423;BME280;3244;42.708;23.288;2023-04-05T01:47:43;94602.38;;;3.61;73.81
6423;BME280;3244;42.708;23.288;2023-04-05T01:50:10;94597.34;;;3.61;74.46
6423;BME280;3244;42.708;23.288;2023-04-05T01:52:36;94603.97;;;3.65;73.53
6423;BME280;3244;42.708;23.288;2023-04-05T01:55:04;94591.34;;;3.71;73.91
6423;BME280;3244;42.708;23.288;2023-04-05T01:57:30;94594.59;;;3.76;73.07
6423;BME280;3244;42.708;23.288;2023-04-05T01:59:57;94598.72;;;3.80;72.32
6423;BME280;3244;42.708;23.288;2023-04-05T02:02:25;94599.00;;;3.62;72.77
6423;BME280;3244;42.708;23.288;2023-04-05T02:04:52;94589.81;;;3.59;73.41
6423;BME280;3244;42.708;23.288;2023-04-05T02:07:19;94592.34;;;3.58;72.94
6423;BME280;3244;42.708;23.288;2023-04-05T02:09:45;94594.72;;;3.68;73.14
6423;BME280;3244;42.708;23.288;2023-04-05T02:12:12;94598.88;;;3.71;72.71
6423;BME280;3244;42.708;23.288;2023-04-05T02:14:39;94598.81;;;3.74;72.78
6423;BME280;3244;42.708;23.288;2023-04-05T02:17:05;94602.06;;;3.81;71.57
6423;BME280;3244;42.708;23.288;2023-04-05T02:19:34;94610.00;;;3.53;72.88
6423;BME280;3244;42.708;23.288;2023-04-05T02:22:05;94597.44;;;3.52;73.05
6423;BME280;3244;42.708;23.288;2023-04-05T02:24:32;94601.66;;;3.51;73.64
6423;BME280;3244;42.708;23.288;2023-04-05T02:26:58;94599.94;;;3.55;72.87
6423;BME280;3244;42.708;23.288;2023-04-05T02:29:25;94605.72;;;3.60;73.49
6423;BME280;3244;42.708;23.288;2023-04-05T02:31:52;94606.66;;;3.53;72.68
6423;BME280;3244;42.708;23.288;2023-04-05T02:34:19;94610.91;;;3.48;73.78
6423;BME280;3244;42.708;23.288;2023-04-05T02:36:49;94603.50;;;3.38;74.30
6423;BME280;3244;42.708;23.288;2023-04-05T02:39:16;94608.47;;;3.45;74.48
6423;BME280;3244;42.708;23.288;2023-04-05T02:41:43;94601.56;;;3.59;73.43
6423;BME280;3244;42.708;23.288;2023-04-05T02:44:11;94598.22;;;3.58;73.41
6423;BME280;3244;42.708;23.288;2023-04-05T02:46:37;94599.91;;;3.56;74.24
6423;BME280;3244;42.708;23.288;2023-04-05T02:49:05;94601.59;;;3.54;73.93
6423;BME280;3244;42.708;23.288;2023-04-05T02:51:31;94604.13;;;3.53;73.15
6423;BME280;3244;42.708;23.288;2023-04-05T02:54:01;94592.34;;;3.58;73.85
6423;BME280;3244;42.708;23.288;2023-04-05T02:56:28;94592.31;;;3.61;73.12
6423;BME280;3244;42.708;23.288;2023-04-05T02:58:55;94594.00;;;3.59;73.11
6423;BME280;3244;42.708;23.288;2023-04-05T03:01:21;94592.28;;;3.62;72.84
6423;BME280;3244;42.708;23.288;2023-04-05T03:03:48;94596.44;;;3.65;73.16
6423;BME280;3244;42.708;23.288;2023-04-05T03:06:15;94597.25;;;3.68;74.06
6423;BME280;3244;42.708;23.288;2023-04-05T03:08:42;94595.47;;;3.73;73.61
6423;BME280;3244;42.708;23.288;2023-04-05T03:11:13;94602.53;;;3.49;73.47
6423;BME280;3244;42.708;23.288;2023-04-05T03:13:40;94597.72;;;3.33;74.99
6423;BME280;3244;42.708;23.288;2023-04-05T03:16:07;94602.78;;;3.29;75.07
6423;BME280;3244;42.708;23.288;2023-04-05T03:18:33;94601.97;;;3.28;74.31
6423;BME280;3244;42.708;23.288;2023-04-05T03:21:00;94604.50;;;3.25;75.26
6423;BME280;3244;42.708;23.288;2023-04-05T03:23:29;94596.06;;;3.32;74.95
6423;BME280;3244;42.708;23.288;2023-04-05T03:25:57;94596.94;;;3.27;74.49
6423;BME280;3244;42.708;23.288;2023-04-05T03:28:26;94594.41;;;3.30;75.16
6423;BME280;3244;42.708;23.288;2023-04-05T03:30:53;94591.00;;;3.35;74.69
6423;BME280;3244;42.708;23.288;2023-04-05T03:33:20;94600.25;;;3.32;75.21
6423;BME280;3244;42.708;23.288;2023-04-05T03:35:47;94599.38;;;3.34;75.16
6423;BME280;3244;42.708;23.288;2023-04-05T03:38:14;94595.19;;;3.35;75.04
6423;BME280;3244;42.708;23.288;2023-04-05T03:40:41;94596.00;;;3.35;74.77
6423;BME280;3244;42.708;23.288;2023-04-05T03:43:08;94595.94;;;3.41;73.92
6423;BME280;3244;42.708;23.288;2023-04-05T03:45:36;94604.34;;;3.37;74.50
6423;BME280;3244;42.708;23.288;2023-04-05T03:48:03;94606.03;;;3.38;74.35
6423;BME280;3244;42.708;23.288;2023-04-05T03:50:30;94615.16;;;3.46;74.50
6423;BME280;3244;42.708;23.288;2023-04-05T03:52:57;94620.88;;;3.54;74.77
6423;BME280;3244;42.708;23.288;2023-04-05T03:55:24;94615.78;;;3.60;74.11
6423;BME280;3244;42.708;23.288;2023-04-05T03:57:51;94618.44;;;3.48;75.62
6423;BME280;3244;42.708;23.288;2023-04-05T04:00:18;94621.03;;;3.43;74.92
6423;BME280;3244;42.708;23.288;2023-04-05T04:02:47;94620.19;;;3.44;74.91
6423;BME280;3244;42.708;23.288;2023-04-05T04:05:15;94626.75;;;3.53;74.88
6423;BME280;3244;42.708;23.288;2023-04-05T04:07:42;94619.19;;;3.56;75.38
6423;BME280;3244;42.708;23.288;2023-04-05T04:10:12;94630.06;;;3.55;75.05
6423;BME280;3244;42.708;23.288;2023-04-05T04:12:39;94625.81;;;3.61;74.94
6423;BME280;3244;42.708;23.288;2023-04-05T04:15:07;94620.78;;;3.60;74.67
6423;BME280;3244;42.708;23.288;2023-04-05T04:17:35;94624.03;;;3.68;74.65
6423;BME280;3244;42.708;23.288;2023-04-05T04:20:04;94624.09;;;3.65;74.96
6423;BME280;3244;42.708;23.288;2023-04-05T04:22:35;94629.91;;;3.67;74.79
6423;BME280;3244;42.708;23.288;2023-04-05T04:25:04;94628.97;;;3.74;75.69
6423;BME280;3244;42.708;23.288;2023-04-05T04:27:35;94628.97;;;3.74;75.55
6423;BME280;3244;42.708;23.288;2023-04-05T04:30:08;94622.47;;;3.61;76.35
6423;BME280;3244;42.708;23.288;2023-04-05T04:32:35;94635.84;;;3.63;76.58
6423;BME280;3244;42.708;23.288;2023-04-05T04:35:21;94635.50;;;3.86;75.76
6423;BME280;3244;42.708;23.288;2023-04-05T04:37:51;94627.13;;;3.85;75.43
6423;BME280;3244;42.708;23.288;2023-04-05T04:40:19;94621.28;;;3.85;75.36
6423;BME280;3244;42.708;23.288;2023-04-05T04:42:47;94632.13;;;3.88;75.02
6423;BME280;3244;42.708;23.288;2023-04-05T04:45:16;94638.19;;;3.73;75.58
6423;BME280;3244;42.708;23.288;2023-04-05T04:47:44;94638.81;;;3.89;74.57
6423;BME280;3244;42.708;23.288;2023-04-05T04:50:11;94637.81;;;3.98;74.73
6423;BME280;3244;42.708;23.288;2023-04-05T04:52:40;94637.78;;;4.01;74.51
6423;BME280;3244;42.708;23.288;2023-04-05T04:55:08;94638.56;;;4.04;73.62
6423;BME280;3244;42.708;23.288;2023-04-05T04:57:38;94644.28;;;4.14;73.88
6423;BME280;3244;42.708;23.288;2023-04-05T05:00:07;94641.06;;;4.06;74.14
6423;BME280;3244;42.708;23.288;2023-04-05T05:02:37;94641.19;;;3.97;74.02
6423;BME280;3244;42.708;23.288;2023-04-05T05:05:05;94633.53;;;4.04;73.30
6423;BME280;3244;42.708;23.288;2023-04-05T05:07:32;94636.94;;;4.00;72.95
6423;BME280;3244;42.708;23.288;2023-04-05T05:10:00;94635.16;;;4.08;73.52
6423;BME280;3244;42.708;23.288;2023-04-05T05:12:26;94640.09;;;4.15;73.24
6423;BME280;3244;42.708;23.288;2023-04-05T05:14:54;94639.00;;;4.29;71.80
6423;BME280;3244;42.708;23.288;2023-04-05T05:17:21;94633.16;;;4.29;73.01
6423;BME280;3244;42.708;23.288;2023-04-05T05:19:48;94642.16;;;4.43;71.12
6423;BME280;3244;42.708;23.288;2023-04-05T05:22:14;94640.66;;;4.32;71.91
6423;BME280;3244;42.708;23.288;2023-04-05T05:24:42;94652.66;;;4.15;71.36
6423;BME280;3244;42.708;23.288;2023-04-05T05:27:10;94654.31;;;4.17;71.42
6423;BME280;3244;42.708;23.288;2023-04-05T05:29:37;94656.81;;;4.19;71.60
6423;BME280;3244;42.708;23.288;2023-04-05T05:32:03;94656.03;;;4.15;72.48
6423;BME280;3244;42.708;23.288;2023-04-05T05:34:31;94651.66;;;4.25;71.84
6423;BME280;3244;42.708;23.288;2023-04-05T05:36:58;94651.16;;;4.55;72.04
6423;BME280;3244;42.708;23.288;2023-04-05T05:39:25;94650.72;;;4.79;71.09
6423;BME280;3244;42.708;23.288;2023-04-05T05:41:52;94658.59;;;5.09;69.68
6423;BME280;3244;42.708;23.288;2023-04-05T05:44:20;94643.31;;;5.18;68.54
6423;BME280;3244;42.708;23.288;2023-04-05T05:46:47;94645.72;;;5.23;68.21
6423;BME280;3244;42.708;23.288;2023-04-05T05:49:13;94641.13;;;5.43;67.80
6423;BME280;3244;42.708;23.288;2023-04-05T05:51:40;94639.16;;;5.56;66.22
6423;BME280;3244;42.708;23.288;2023-04-05T05:54:07;94638.22;;;5.61;65.64
6423;BME280;3244;42.708;23.288;2023-04-05T05:56:33;94639.03;;;5.62;66.47
6423;BME280;3244;42.708;23.288;2023-04-05T05:59:00;94641.13;;;5.81;64.77
6423;BME280;3244;42.708;23.288;2023-04-05T06:01:28;94639.38;;;5.85;64.26
6423;BME280;3244;42.708;23.288;2023-04-05T06:03:55;94643.63;;;5.83;64.52
6423;BME280;3244;42.708;23.288;2023-04-05T06:06:22;94647.19;;;5.73;65.04
6423;BME280;3244;42.708;23.288;2023-04-05T06:08:48;94646.50;;;5.66;65.23
6423;BME280;3244;42.708;23.288;2023-04-05T06:11:17;94639.88;;;6.01;65.19
6423;BME280;3244;42.708;23.288;2023-04-05T06:13:43;94641.56;;;6.00;63.61
6423;BME280;3244;42.708;23.288;2023-04-05T06:16:10;94630.72;;;5.97;63.41
6423;BME280;3244;42.708;23.288;2023-04-05T06:18:38;94654.00;;;6.09;62.95
6423;BME280;3244;42.708;23.288;2023-04-05T06:21:05;94653.03;;;6.15;63.63
6423;BME280;3244;42.708;23.288;2023-04-05T06:23:32;94657.53;;;6.38;63.97
6423;BME280;3244;42.708;23.288;2023-04-05T06:25:58;94654.13;;;6.39;62.24
6423;BME280;3244;42.708;23.288;2023-04-05T06:28:25;94657.53;;;6.38;62.27
6423;BME280;3244;42.708;23.288;2023-04-05T06:30:52;94662.72;;;6.32;62.78
6423;BME280;3244;42.708;23.288;2023-04-05T06:33:19;94655.72;;;6.43;61.84
6423;BME280;3244;42.708;23.288;2023-04-05T06:35:47;94654.50;;;6.58;61.77
6423;BME280;3244;42.708;23.288;2023-04-05T06:38:14;94669.16;;;6.77;61.69
6423;BME280;3244;42.708;23.288;2023-04-05T06:40:41;94671.91;;;6.68;61.71
6423;BME280;3244;42.708;23.288;2023-04-05T06:43:08;94663.25;;;6.78;61.66
6423;BME280;3244;42.708;23.288;2023-04-05T06:45:35;94663.06;;;6.86;61.20
6423;BME280;3244;42.708;23.288;2023-04-05T06:48:02;94676.50;;;7.19;60.46
6423;BME280;3244;42.708;23.288;2023-04-05T06:50:28;94674.94;;;7.75;59.49
6423;BME280;3244;42.708;23.288;2023-04-05T06:52:56;94681.25;;;8.72;55.82
6423;BME280;3244;42.708;23.288;2023-04-05T06:55:23;94673.53;;;9.02;54.34
6423;BME280;3244;42.708;23.288;2023-04-05T06:57:50;94684.72;;;8.95;53.81
6423;BME280;3244;42.708;23.288;2023-04-05T07:00:17;94681.28;;;8.97;53.77
6423;BME280;3244;42.708;23.288;2023-04-05T07:02:44;94688.06;;;8.70;54.39
6423;BME280;3244;42.708;23.288;2023-04-05T07:05:10;94695.38;;;8.53;54.08
6423;BME280;3244;42.708;23.288;2023-04-05T07:07:38;94701.09;;;8.32;54.96
6423;BME280;3244;42.708;23.288;2023-04-05T07:10:07;94706.72;;;8.13;54.81
6423;BME280;3244;42.708;23.288;2023-04-05T07:12:34;94702.66;;;8.08;54.94
6423;BME280;3244;42.708;23.288;2023-04-05T07:15:01;94697.91;;;7.97;55.64
6423;BME280;3244;42.708;23.288;2023-04-05T07:17:28;94700.78;;;7.85;57.22
6423;BME280;3244;42.708;23.288;2023-04-05T07:19:55;94712.75;;;7.80;56.46
6423;BME280;3244;42.708;23.288;2023-04-05T07:22:22;94714.72;;;7.69;56.49
6423;BME280;3244;42.708;23.288;2023-04-05T07:24:48;94707.97;;;7.69;57.32
6423;BME280;3244;42.708;23.288;2023-04-05T07:27:18;94715.25;;;7.50;56.28
6423;BME280;3244;42.708;23.288;2023-04-05T07:29:44;94722.69;;;7.24;58.23
6423;BME280;3244;42.708;23.288;2023-04-05T07:32:12;94724.31;;;7.27;58.51
6423;BME280;3244;42.708;23.288;2023-04-05T07:34:39;94710.72;;;7.31;57.60
6423;BME280;3244;42.708;23.288;2023-04-05T07:37:06;94710.78;;;7.29;58.20
6423;BME280;3244;42.708;23.288;2023-04-05T07:39:32;94715.78;;;7.31;57.79
6423;BME280;3244;42.708;23.288;2023-04-05T07:42:00;94714.00;;;7.34;57.74
6423;BME280;3244;42.708;23.288;2023-04-05T07:44:28;94720.22;;;7.54;58.27
6423;BME280;3244;42.708;23.288;2023-04-05T07:46:54;94711.59;;;7.61;57.68
6423;BME280;3244;42.708;23.288;2023-04-05T07:49:24;94725.09;;;7.61;57.33
6423;BME280;3244;42.708;23.288;2023-04-05T07:51:53;94732.81;;;7.55;57.50
6423;BME280;3244;42.708;23.288;2023-04-05T07:54:20;94737.88;;;7.55;57.45
6423;BME280;3244;42.708;23.288;2023-04-05T07:56:47;94742.16;;;7.53;57.83
6423;BME280;3244;42.708;23.288;2023-04-05T07:59:14;94745.59;;;7.50;57.30
6423;BME280;3244;42.708;23.288;2023-04-05T08:01:43;94746.97;;;7.30;57.06
6423;BME280;3244;42.708;23.288;2023-04-05T08:04:09;94744.97;;;7.10;57.98
6423;BME280;3244;42.708;23.288;2023-04-05T08:06:36;94747.47;;;7.11;58.57
6423;BME280;3244;42.708;23.288;2023-04-05T08:09:03;94739.91;;;7.10;58.65
6423;BME280;3244;42.708;23.288;2023-04-05T08:11:32;94742.41;;;6.77;58.89
6423;BME280;3244;42.708;23.288;2023-04-05T08:13:59;94744.06;;;6.78;59.23
6423;BME280;3244;42.708;23.288;2023-04-05T08:16:26;94743.88;;;6.86;58.58
6423;BME280;3244;42.708;23.288;2023-04-05T08:18:54;94756.81;;;6.72;58.90
6423;BME280;3244;42.708;23.288;2023-04-05T08:21:21;94761.06;;;6.70;59.34
6423;BME280;3244;42.708;23.288;2023-04-05T08:23:48;94763.91;;;6.58;59.79
6423;BME280;3244;42.708;23.288;2023-04-05T08:26:15;94761.56;;;6.49;59.90
6423;BME280;3244;42.708;23.288;2023-04-05T08:28:42;94765.19;;;6.39;60.84
6423;BME280;3244;42.708;23.288;2023-04-05T08:31:09;94762.97;;;6.62;60.18
6423;BME280;3244;42.708;23.288;2023-04-05T08:33:36;94758.47;;;6.73;59.63
6423;BME280;3244;42.708;23.288;2023-04-05T08:36:05;94748.16;;;6.47;60.04
6423;BME280;3244;42.708;23.288;2023-04-05T08:38:33;94765.75;;;6.50;60.77
6423;BME280;3244;42.708;23.288;2023-04-05T08:41:06;94765.44;;;6.65;60.27
6423;BME280;3244;42.708;23.288;2023-04-05T08:43:43;94773.53;;;6.78;59.78
6423;BME280;3244;42.708;23.288;2023-04-05T08:46:14;94772.81;;;6.73;58.89
6423;BME280;3244;42.708;23.288;2023-04-05T08:48:41;94764.19;;;6.81;59.14
6423;BME280;3244;42.708;23.288;2023-04-05T08:51:09;94766.66;;;6.85;59.41
6423;BME280;3244;42.708;23.288;2023-04-05T08:53:36;94771.81;;;6.80;60.13
6423;BME280;3244;42.708;23.288;2023-04-05T08:56:03;94776.16;;;7.09;60.23
6423;BME280;3244;42.708;23.288;2023-04-05T08:58:30;94772.91;;;7.38;60.84
6423;BME280;3244;42.708;23.288;2023-04-05T09:00:59;94776.75;;;7.51;60.19
6423;BME280;3244;42.708;23.288;2023-04-05T09:03:31;94783.44;;;7.54;59.09
6423;BME280;3244;42.708;23.288;2023-04-05T09:05:59;94778.34;;;7.55;58.66
6423;BME280;3244;42.708;23.288;2023-04-05T09:08:29;94780.50;;;7.69;57.39
6423;BME280;3244;42.708;23.288;2023-04-05T09:10:57;94788.78;;;7.74;57.18
6423;BME280;3244;42.708;23.288;2023-04-05T09:13:23;94786.97;;;7.79;57.80
6423;BME280;3244;42.708;23.288;2023-04-05T09:15:50;94789.47;;;7.80;57.99
6423;BME280;3244;42.708;23.288;2023-04-05T09:18:17;94797.25;;;8.04;57.25
6423;BME280;3244;42.708;23.288;2023-04-05T09:20:44;94794.50;;;8.11;56.91
6423;BME280;3244;42.708;23.288;2023-04-05T09:23:11;94794.72;;;8.35;56.78
6423;BME280;3244;42.708;23.288;2023-04-05T09:25:40;94791.06;;;8.71;55.04
6423;BME280;3244;42.708;23.288;2023-04-05T09:28:08;94788.13;;;8.57;54.36
6423;BME280;3244;42.708;23.288;2023-04-05T09:30:35;94796.13;;;8.43;54.50
6423;BME280;3244;42.708;23.288;2023-04-05T09:33:03;94779.88;;;8.78;54.02
6423;BME280;3244;42.708;23.288;2023-04-05T09:35:31;94781.44;;;8.82;53.29
6423;BME280;3244;42.708;23.288;2023-04-05T09:37:59;94790.63;;;8.59;53.22
6423;BME280;3244;42.708;23.288;2023-04-05T09:40:41;94787.09;;;8.35;54.30
6423;BME280;3244;42.708;23.288;2023-04-05T09:43:09;94778.94;;;8.24;53.50
6423;BME280;3244;42.708;23.288;2023-04-05T09:45:40;94781.84;;;8.11;54.98
6423;BME280;3244;42.708;23.288;2023-04-05T09:48:07;94775.84;;;8.43;54.45
6423;BME280;3244;42.708;23.288;2023-04-05T09:50:35;94775.72;;;8.48;53.71
6423;BME280;3244;42.708;23.288;2023-04-05T09:53:07;94775.47;;;8.28;53.59
6423;BME280;3244;42.708;23.288;2023-04-05T09:55:35;94778.09;;;8.25;52.72
6423;BME280;3244;42.708;23.288;2023-04-05T09:58:03;94782.72;;;8.10;53.48
6423;BME280;3244;42.708;23.288;2023-04-05T10:00:30;94774.13;;;7.87;54.10
6423;BME280;3244;42.708;23.288;2023-04-05T10:02:57;94781.09;;;7.78;54.24
6423;BME280;3244;42.708;23.288;2023-04-05T10:05:26;94785.91;;;7.88;53.59
6423;BME280;3244;42.708;23.288;2023-04-05T10:07:54;94789.44;;;7.49;53.85
6423;BME280;3244;42.708;23.288;2023-04-05T10:10:22;94787.47;;;7.61;53.46
6423;BME280;3244;42.708;23.288;2023-04-05T10:12:49;94786.28;;;7.72;53.31
6423;BME280;3244;42.708;23.288;2023-04-05T10:15:18;94791.97;;;8.11;52.86
6423;BME280;3244;42.708;23.288;2023-04-05T10:17:47;94785.19;;;8.41;52.43
6423;BME280;3244;42.708;23.288;2023-04-05T10:20:17;94783.88;;;8.85;50.35
6423;BME280;3244;42.708;23.288;2023-04-05T10:22:55;94779.59;;;9.88;48.00
6423;BME280;3244;42.708;23.288;2023-04-05T10:25:27;94773.41;;;10.19;47.52
6423;BME280;3244;42.708;23.288;2023-04-05T10:28:03;94779.13;;;10.01;47.28
6423;BME280;3244;42.708;23.288;2023-04-05T10:30:35;94782.06;;;9.40;48.31
6423;BME280;3244;42.708;23.288;2023-04-05T10:33:10;94790.09;;;9.02;49.69
6423;BME280;3244;42.708;23.288;2023-04-05T10:35:49;94781.28;;;8.87;50.27
6423;BME280;3244;42.708;23.288;2023-04-05T10:38:24;94793.13;;;8.86;50.38
6423;BME280;3244;42.708;23.288;2023-04-05T10:40:53;94784.31;;;8.98;50.25
6423;BME280;3244;42.708;23.288;2023-04-05T10:43:24;94777.31;;;9.31;50.22
6423;BME280;3244;42.708;23.288;2023-04-05T10:45:53;94783.72;;;9.41;49.60
6423;BME280;3244;42.708;23.288;2023-04-05T10:48:27;94778.00;;;9.61;48.47
6423;BME280;3244;42.708;23.288;2023-04-05T10:50:59;94780.00;;;9.76;47.57
6423;BME280;3244;42.708;23.288;2023-04-05T10:53:26;94784.91;;;9.81;47.83
6423;BME280;3244;42.708;23.288;2023-04-05T10:55:54;94792.00;;;9.21;48.08
6423;BME280;3244;42.708;23.288;2023-04-05T10:58:21;94793.53;;;9.01;49.68
6423;BME280;3244;42.708;23.288;2023-04-05T11:00:50;94795.41;;;8.40;51.32
6423;BME280;3244;42.708;23.288;2023-04-05T11:03:46;94790.91;;;8.18;50.49
6423;BME280;3244;42.708;23.288;2023-04-05T11:06:21;94802.66;;;8.50;51.13
6423;BME280;3244;42.708;23.288;2023-04-05T11:08:50;94801.56;;;8.59;50.65
6423;BME280;3244;42.708;23.288;2023-04-05T11:11:21;94796.06;;;8.45;51.08
6423;BME280;3244;42.708;23.288;2023-04-05T11:13:49;94795.81;;;8.25;51.26
6423;BME280;3244;42.708;23.288;2023-04-05T11:16:16;94797.28;;;8.32;51.76
6423;BME280;3244;42.708;23.288;2023-04-05T11:18:44;94794.28;;;8.48;50.94
6423;BME280;3244;42.708;23.288;2023-04-05T11:21:19;94786.13;;;8.67;51.30
6423;BME280;3244;42.708;23.288;2023-04-05T11:24:00;94798.59;;;8.45;50.60
6423;BME280;3244;42.708;23.288;2023-04-05T11:26:32;94799.06;;;8.28;51.63
6423;BME280;3244;42.708;23.288;2023-04-05T11:28:59;94774.50;;;8.32;50.94
6423;BME280;3244;42.708;23.288;2023-04-05T11:31:25;94788.84;;;8.33;50.94
6423;BME280;3244;42.708;23.288;2023-04-05T11:33:54;94785.34;;;8.07;51.35
6423;BME280;3244;42.708;23.288;2023-04-05T11:36:32;94771.03;;;8.06;51.70
6423;BME280;3244;42.708;23.288;2023-04-05T11:39:23;94789.78;;;7.99;51.25
6423;BME280;3244;42.708;23.288;2023-04-05T11:41:58;94792.38;;;7.96;51.67
6423;BME280;3244;42.708;23.288;2023-04-05T11:44:26;94794.63;;;8.07;51.17
6423;BME280;3244;42.708;23.288;2023-04-05T11:46:53;94788.84;;;8.33;51.02
6423;BME280;3244;42.708;23.288;2023-04-05T11:49:21;94791.53;;;8.27;50.94
6423;BME280;3244;42.708;23.288;2023-04-05T11:51:51;94793.00;;;8.35;51.19
6423;BME280;3244;42.708;23.288;2023-04-05T11:54:28;94782.28;;;8.26;52.16
6423;BME280;3244;42.708;23.288;2023-04-05T11:56:55;94788.31;;;8.51;52.18
6423;BME280;3244;42.708;23.288;2023-04-05T11:59:32;94789.13;;;8.79;51.56
6423;BME280;3244;42.708;23.288;2023-04-05T12:02:01;94779.34;;;8.67;50.89
6423;BME280;3244;42.708;23.288;2023-04-05T12:04:30;94789.13;;;8.79;52.28
6423;BME280;3244;42.708;23.288;2023-04-05T12:07:14;94783.28;;;9.30;49.94
6423;BME280;3244;42.708;23.288;2023-04-05T12:10:11;94779.59;;;9.64;49.74
6423;BME280;3244;42.708;23.288;2023-04-05T12:12:41;94787.47;;;9.56;49.84
6423;BME280;3244;42.708;23.288;2023-04-05T12:15:10;94787.88;;;9.69;49.77
6423;BME280;3244;42.708;23.288;2023-04-05T12:17:46;94785.50;;;9.64;49.65
6423;BME280;3244;42.708;23.288;2023-04-05T12:20:15;94783.63;;;9.69;49.48
6423;BME280;3244;42.708;23.288;2023-04-05T12:22:46;94792.22;;;9.40;50.52
6423;BME280;3244;42.708;23.288;2023-04-05T12:25:14;94788.09;;;9.63;49.65
6423;BME280;3244;42.708;23.288;2023-04-05T12:27:41;94789.94;;;9.58;50.26
6423;BME280;3244;42.708;23.288;2023-04-05T12:30:10;94782.75;;;9.70;49.85
6423;BME280;3244;42.708;23.288;2023-04-05T12:32:44;94784.53;;;9.17;50.33
6423;BME280;3244;42.708;23.288;2023-04-05T12:35:12;94786.69;;;9.54;50.13
6423;BME280;3244;42.708;23.288;2023-04-05T12:37:39;94778.34;;;9.75;49.16
6423;BME280;3244;42.708;23.288;2023-04-05T12:40:09;94785.59;;;9.86;48.98
6423;BME280;3244;42.708;23.288;2023-04-05T12:42:37;94789.78;;;9.87;49.38
6423;BME280;3244;42.708;23.288;2023-04-05T12:45:08;94786.44;;;9.62;49.36
6423;BME280;3244;42.708;23.288;2023-04-05T12:47:35;94784.88;;;9.33;50.26
6423;BME280;3244;42.708;23.288;2023-04-05T12:50:12;94791.84;;;9.00;50.92
6423;BME280;3244;42.708;23.288;2023-04-05T12:52:54;94784.81;;;8.55;51.69
6423;BME280;3244;42.708;23.288;2023-04-05T12:55:22;94791.94;;;8.13;52.94
6423;BME280;3244;42.708;23.288;2023-04-05T12:57:51;94788.78;;;8.05;52.21
6423;BME280;3244;42.708;23.288;2023-04-05T13:00:19;94786.97;;;7.79;52.20
6423;BME280;3244;42.708;23.288;2023-04-05T13:02:49;94786.06;;;7.49;52.36
6423;BME280;3244;42.708;23.288;2023-04-05T13:05:21;94792.84;;;7.48;52.60
6423;BME280;3244;42.708;23.288;2023-04-05T13:07:48;94805.91;;;7.32;52.49
6423;BME280;3244;42.708;23.288;2023-04-05T13:10:16;94813.22;;;7.08;52.70
6423;BME280;3244;42.708;23.288;2023-04-05T13:12:44;94802.50;;;6.99;54.22
6423;BME280;3244;42.708;23.288;2023-04-05T13:15:11;94799.88;;;7.03;54.48
6423;BME280;3244;42.708;23.288;2023-04-05T13:17:38;94808.63;;;6.90;54.86
6423;BME280;3244;42.708;23.288;2023-04-05T13:20:06;94805.94;;;6.96;54.52
6423;BME280;3244;42.708;23.288;2023-04-05T13:22:33;94805.97;;;6.95;55.17
6423;BME280;3244;42.708;23.288;2023-04-05T13:25:00;94807.50;;;7.02;54.76
6423;BME280;3244;42.708;23.288;2023-04-05T13:27:26;94790.53;;;7.07;53.67
6423;BME280;3244;42.708;23.288;2023-04-05T13:29:54;94797.09;;;7.14;54.48
6423;BME280;3244;42.708;23.288;2023-04-05T13:32:21;94789.31;;;7.22;54.13